createdAt,value
2018-08-09T00:00:07.598Z,0.00
2018-08-09T00:01:07.601Z,0.00
2018-08-09T00:02:07.572Z,0.00
2018-08-09T00:03:07.558Z,0.00
2018-08-09T00:04:07.551Z,0.00
2018-08-09T00:05:07.539Z,0.00
2018-08-09T00:06:07.541Z,0.00
2018-08-09T00:07:07.516Z,0.00
2018-08-09T00:08:07.495Z,0.00
2018-08-09T00:09:07.493Z,0.00
2018-08-09T00:10:07.485Z,0.00
2018-08-09T00:11:07.485Z,0.00
2018-08-09T00:12:07.457Z,0.00
2018-08-09T00:13:07.437Z,0.00
2018-08-09T00:14:07.432Z,0.00
2018-08-09T00:15:07.423Z,0.00
2018-08-09T00:16:07.433Z,0.00
2018-08-09T00:17:07.399Z,0.00
2018-08-09T00:18:07.387Z,0.00
2018-08-09T00:19:07.367Z,0.00
2018-08-09T00:20:07.359Z,0.00
2018-08-09T00:21:07.373Z,0.00
2018-08-09T00:22:07.335Z,0.00
2018-08-09T00:23:07.325Z,0.00
2018-08-09T00:24:07.311Z,0.00
2018-08-09T00:25:07.303Z,0.00
2018-08-09T00:26:07.314Z,0.00
2018-08-09T00:27:07.277Z,0.00
2018-08-09T00:28:07.269Z,0.00
2018-08-09T00:29:07.256Z,0.00
2018-08-09T00:30:07.246Z,0.00
2018-08-09T00:31:07.249Z,0.00
2018-08-09T00:32:07.225Z,0.00
2018-08-09T00:33:07.210Z,0.00
2018-08-09T00:34:07.193Z,0.00
2018-08-09T00:35:07.190Z,0.00
2018-08-09T00:36:07.193Z,0.00
2018-08-09T00:37:07.166Z,0.00
2018-08-09T00:38:07.146Z,0.00
2018-08-09T00:39:07.143Z,0.00
2018-08-09T00:40:07.127Z,0.00
2018-08-09T00:41:07.139Z,0.00
2018-08-09T00:42:07.110Z,0.00
2018-08-09T00:43:07.088Z,0.00
2018-08-09T00:44:07.079Z,0.00
2018-08-09T00:45:07.073Z,0.00
2018-08-09T00:46:07.078Z,0.00
2018-08-09T00:47:07.045Z,0.00
2018-08-09T00:48:07.033Z,0.00
2018-08-09T00:49:07.026Z,0.00
2018-08-09T00:50:07.015Z,0.00
2018-08-09T00:51:07.019Z,0.00
2018-08-09T00:52:06.986Z,0.00
2018-08-09T00:53:06.973Z,0.00
2018-08-09T00:54:06.963Z,0.00
2018-08-09T00:55:06.959Z,0.00
2018-08-09T00:56:06.969Z,0.00
2018-08-09T00:57:06.929Z,0.00
2018-08-09T00:58:06.920Z,0.00
2018-08-09T00:59:06.907Z,0.00
2018-08-09T01:00:06.892Z,0.00
2018-08-09T01:01:06.912Z,0.00
2018-08-09T01:02:06.871Z,0.00
2018-08-09T01:03:06.856Z,0.00
2018-08-09T01:04:06.858Z,0.00
2018-08-09T01:05:06.833Z,0.00
2018-08-09T01:06:06.852Z,0.00
2018-08-09T01:07:06.814Z,0.00
2018-08-09T01:08:06.804Z,0.00
2018-08-09T01:09:06.797Z,0.00
2018-08-09T01:10:06.776Z,0.00
2018-08-09T01:11:06.796Z,0.00
2018-08-09T01:12:06.754Z,0.00
2018-08-09T01:13:06.751Z,0.00
2018-08-09T01:14:06.738Z,0.00
2018-08-09T01:15:06.718Z,0.00
2018-08-09T01:16:06.739Z,0.00
2018-08-09T01:17:06.695Z,0.00
2018-08-09T01:18:06.683Z,0.00
2018-08-09T01:19:06.674Z,0.00
2018-08-09T01:20:06.659Z,0.00
2018-08-09T01:21:06.678Z,0.00
2018-08-09T01:22:06.645Z,0.00
2018-08-09T01:23:06.624Z,0.00
2018-08-09T01:24:06.621Z,0.00
2018-08-09T01:25:06.607Z,0.00
2018-08-09T01:26:06.617Z,0.00
2018-08-09T01:27:06.584Z,0.00
2018-08-09T01:28:06.568Z,0.00
2018-08-09T01:29:06.559Z,0.00
2018-08-09T01:30:06.551Z,0.00
2018-08-09T01:31:06.558Z,0.00
2018-08-09T01:32:06.529Z,0.00
2018-08-09T01:33:06.510Z,0.00
2018-08-09T01:34:06.500Z,0.00
2018-08-09T01:35:06.486Z,0.00
2018-08-09T01:36:06.500Z,0.00
2018-08-09T01:37:06.461Z,0.00
2018-08-09T01:38:06.456Z,0.00
2018-08-09T01:39:06.441Z,0.00
2018-08-09T01:40:06.428Z,0.00
2018-08-09T01:41:06.447Z,0.00
2018-08-09T01:42:06.405Z,0.00
2018-08-09T01:43:06.402Z,0.00
2018-08-09T01:44:06.386Z,0.00
2018-08-09T01:45:06.372Z,0.00
2018-08-09T01:46:06.400Z,0.00
2018-08-09T01:47:06.345Z,0.00
2018-08-09T01:48:06.336Z,0.00
2018-08-09T01:49:06.328Z,0.00
2018-08-09T01:50:06.312Z,0.00
2018-08-09T01:51:06.305Z,0.00
2018-08-09T01:52:06.319Z,0.00
2018-08-09T01:53:06.275Z,0.00
2018-08-09T01:54:06.265Z,0.00
2018-08-09T01:55:06.268Z,0.00
2018-08-09T01:56:06.247Z,0.00
2018-08-09T01:57:06.261Z,0.00
2018-08-09T01:58:06.219Z,0.00
2018-08-09T01:59:06.220Z,0.00
2018-08-09T02:00:06.194Z,0.00
2018-08-09T02:01:06.194Z,0.00
2018-08-09T02:02:06.206Z,0.00
2018-08-09T02:03:06.162Z,0.00
2018-08-09T02:04:06.158Z,0.00
2018-08-09T02:05:06.190Z,0.00
2018-08-09T02:06:06.127Z,0.00
2018-08-09T02:07:06.157Z,0.00
2018-08-09T02:08:06.110Z,0.00
2018-08-09T02:09:06.095Z,0.00
2018-08-09T02:10:06.083Z,0.00
2018-08-09T02:11:06.076Z,0.00
2018-08-09T02:12:06.095Z,0.00
2018-08-09T02:13:06.046Z,0.00
2018-08-09T02:14:06.039Z,0.00
2018-08-09T02:15:06.033Z,0.00
2018-08-09T02:16:06.017Z,0.00
2018-08-09T02:17:06.032Z,0.00
2018-08-09T02:18:05.996Z,0.00
2018-08-09T02:19:05.981Z,0.00
2018-08-09T02:20:05.972Z,0.00
2018-08-09T02:21:05.957Z,0.00
2018-08-09T02:22:05.975Z,0.00
2018-08-09T02:23:05.933Z,0.00
2018-08-09T02:24:05.924Z,0.00
2018-08-09T02:25:05.917Z,0.00
2018-08-09T02:26:05.902Z,0.00
2018-08-09T02:27:05.912Z,0.00
2018-08-09T02:28:05.880Z,0.00
2018-08-09T02:29:05.866Z,0.00
2018-08-09T02:30:05.860Z,0.00
2018-08-09T02:31:05.845Z,0.00
2018-08-09T02:32:05.855Z,0.00
2018-08-09T02:33:05.820Z,0.00
2018-08-09T02:34:05.809Z,0.00
2018-08-09T02:35:05.796Z,0.00
2018-08-09T02:36:05.794Z,0.00
2018-08-09T02:37:05.800Z,0.00
2018-08-09T02:38:05.767Z,0.00
2018-08-09T02:39:05.752Z,0.00
2018-08-09T02:40:05.746Z,0.00
2018-08-09T02:41:05.730Z,0.00
2018-08-09T02:42:05.750Z,0.00
2018-08-09T02:43:05.703Z,0.00
2018-08-09T02:44:05.702Z,0.00
2018-08-09T02:45:05.687Z,0.00
2018-08-09T02:46:05.680Z,0.00
2018-08-09T02:47:05.682Z,0.00
2018-08-09T02:48:05.658Z,0.00
2018-08-09T02:49:05.641Z,0.00
2018-08-09T02:50:05.626Z,0.00
2018-08-09T02:51:05.617Z,0.00
2018-08-09T02:52:05.625Z,0.00
2018-08-09T02:53:05.599Z,0.00
2018-08-09T02:54:05.581Z,0.00
2018-08-09T02:55:05.576Z,0.00
2018-08-09T02:56:05.559Z,0.00
2018-08-09T02:57:05.573Z,0.00
2018-08-09T02:58:05.537Z,0.00
2018-08-09T02:59:05.524Z,0.00
2018-08-09T03:00:05.515Z,0.00
2018-08-09T03:01:05.503Z,0.00
2018-08-09T03:02:05.514Z,0.00
2018-08-09T03:03:05.478Z,0.00
2018-08-09T03:04:05.470Z,0.00
2018-08-09T03:05:05.455Z,0.00
2018-08-09T03:06:05.459Z,0.00
2018-08-09T03:07:05.457Z,0.00
2018-08-09T03:08:05.419Z,0.00
2018-08-09T03:09:05.412Z,0.00
2018-08-09T03:10:05.401Z,0.00
2018-08-09T03:11:05.391Z,0.00
2018-08-09T03:12:05.394Z,0.00
2018-08-09T03:13:05.369Z,0.00
2018-08-09T03:14:05.358Z,0.00
2018-08-09T03:15:05.336Z,0.00
2018-08-09T03:16:05.333Z,0.00
2018-08-09T03:17:05.337Z,0.00
2018-08-09T03:18:05.311Z,0.00
2018-08-09T03:19:05.293Z,0.00
2018-08-09T03:20:05.283Z,0.00
2018-08-09T03:21:05.273Z,0.00
2018-08-09T03:22:05.280Z,0.00
2018-08-09T03:23:05.255Z,0.00
2018-08-09T03:24:05.240Z,0.00
2018-08-09T03:25:05.226Z,0.00
2018-08-09T03:26:05.219Z,0.00
2018-08-09T03:27:05.222Z,0.00
2018-08-09T03:28:05.191Z,0.00
2018-08-09T03:29:05.181Z,0.00
2018-08-09T03:30:05.165Z,0.00
2018-08-09T03:31:05.161Z,4.00
2018-08-09T03:32:05.173Z,4.00
2018-08-09T03:33:05.133Z,4.00
2018-08-09T03:34:05.119Z,4.00
2018-08-09T03:35:05.116Z,4.00
2018-08-09T03:36:05.102Z,8.00
2018-08-09T03:37:05.120Z,4.00
2018-08-09T03:38:05.082Z,8.00
2018-08-09T03:39:05.068Z,8.00
2018-08-09T03:40:05.053Z,8.00
2018-08-09T03:41:05.044Z,12.00
2018-08-09T03:42:05.056Z,16.00
2018-08-09T03:43:05.019Z,16.00
2018-08-09T03:44:05.010Z,20.00
2018-08-09T03:45:04.993Z,24.00
2018-08-09T03:46:04.992Z,24.00
2018-08-09T03:47:04.998Z,28.00
2018-08-09T03:48:04.960Z,36.00
2018-08-09T03:49:04.954Z,40.00
2018-08-09T03:50:04.947Z,48.00
2018-08-09T03:51:04.923Z,52.00
2018-08-09T03:52:04.946Z,60.00
2018-08-09T03:53:04.906Z,68.00
2018-08-09T03:54:04.890Z,76.00
2018-08-09T03:55:04.881Z,88.00
2018-08-09T03:56:04.867Z,104.00
2018-08-09T03:57:04.897Z,116.00
2018-08-09T03:58:04.846Z,128.00
2018-08-09T03:59:04.837Z,144.00
2018-08-09T04:00:04.830Z,160.00
2018-08-09T04:01:04.809Z,180.00
2018-08-09T04:02:04.798Z,204.00
2018-08-09T04:03:04.830Z,220.00
2018-08-09T04:04:04.780Z,244.00
2018-08-09T04:05:04.768Z,268.00
2018-08-09T04:06:04.752Z,288.00
2018-08-09T04:07:04.743Z,308.00
2018-08-09T04:08:04.738Z,336.00
2018-08-09T04:09:04.751Z,360.00
2018-08-09T04:10:04.713Z,384.00
2018-08-09T04:11:04.699Z,404.00
2018-08-09T04:12:04.805Z,416.00
2018-08-09T04:13:04.678Z,424.00
2018-08-09T04:14:04.660Z,428.00
2018-08-09T04:15:04.682Z,412.00
2018-08-09T04:16:04.637Z,384.00
2018-08-09T04:17:04.636Z,360.00
2018-08-09T04:18:04.617Z,360.00
2018-08-09T04:19:04.609Z,372.00
2018-08-09T04:20:04.618Z,404.00
2018-08-09T04:21:04.584Z,456.00
2018-08-09T04:22:04.571Z,516.00
2018-08-09T04:23:04.557Z,584.00
2018-08-09T04:24:04.584Z,636.00
2018-08-09T04:25:04.541Z,656.00
2018-08-09T04:26:04.522Z,680.00
2018-08-09T04:27:04.523Z,708.00
2018-08-09T04:28:04.499Z,748.00
2018-08-09T04:29:04.489Z,800.00
2018-08-09T04:30:04.505Z,840.00
2018-08-09T04:31:04.471Z,860.00
2018-08-09T04:32:04.464Z,864.00
2018-08-09T04:33:04.444Z,864.00
2018-08-09T04:34:04.431Z,848.00
2018-08-09T04:35:04.462Z,824.00
2018-08-09T04:36:04.408Z,812.00
2018-08-09T04:37:04.404Z,804.00
2018-08-09T04:38:04.497Z,796.00
2018-08-09T04:39:04.384Z,808.00
2018-08-09T04:40:04.368Z,832.00
2018-08-09T04:41:04.392Z,852.00
2018-08-09T04:42:04.349Z,824.00
2018-08-09T04:43:04.333Z,812.00
2018-08-09T04:44:04.318Z,852.00
2018-08-09T04:45:04.312Z,920.00
2018-08-09T04:46:04.294Z,984.00
2018-08-09T04:47:04.400Z,1092.00
2018-08-09T04:48:04.329Z,1248.00
2018-08-09T04:49:04.268Z,1384.00
2018-08-09T04:50:04.249Z,1480.00
2018-08-09T04:51:04.243Z,1548.00
2018-08-09T04:52:04.299Z,1644.00
2018-08-09T04:53:04.243Z,1692.00
2018-08-09T04:54:04.204Z,1716.00
2018-08-09T04:55:04.195Z,1724.00
2018-08-09T04:56:04.181Z,1768.00
2018-08-09T04:57:04.167Z,1848.00
2018-08-09T04:58:04.215Z,1988.00
2018-08-09T04:59:04.183Z,2084.00
2018-08-09T05:00:04.161Z,2204.00
2018-08-09T05:01:04.221Z,2280.00
2018-08-09T05:02:04.112Z,2436.00
2018-08-09T05:03:04.103Z,2704.00
2018-08-09T05:04:04.089Z,2936.00
2018-08-09T05:05:04.232Z,2940.00
2018-08-09T05:06:04.069Z,2660.00
2018-08-09T05:07:04.054Z,2512.00
2018-08-09T05:08:04.045Z,2316.00
2018-08-09T05:09:04.030Z,2216.00
2018-08-09T05:10:04.020Z,2244.00
2018-08-09T05:11:04.040Z,2204.00
2018-08-09T05:12:03.999Z,2100.00
2018-08-09T05:13:03.995Z,2028.00
2018-08-09T05:14:03.996Z,2072.00
2018-08-09T05:15:03.957Z,2084.00
2018-08-09T05:16:03.950Z,2036.00
2018-08-09T05:17:03.968Z,1980.00
2018-08-09T05:18:03.924Z,1760.00
2018-08-09T05:19:03.921Z,2252.00
2018-08-09T05:20:03.910Z,2564.00
2018-08-09T05:21:03.892Z,2896.00
2018-08-09T05:22:03.968Z,3212.00
2018-08-09T05:23:03.975Z,3408.00
2018-08-09T05:24:03.858Z,3388.00
2018-08-09T05:25:03.883Z,3436.00
2018-08-09T05:26:03.839Z,3568.00
2018-08-09T05:27:03.828Z,3768.00
2018-08-09T05:28:03.845Z,4128.00
2018-08-09T05:29:03.805Z,4564.00
2018-08-09T05:30:03.857Z,4888.00
2018-08-09T05:31:03.835Z,5108.00
2018-08-09T05:32:03.764Z,5484.00
2018-08-09T05:33:03.755Z,6324.00
2018-08-09T05:34:03.796Z,7132.00
2018-08-09T05:35:03.736Z,7428.00
2018-08-09T05:36:03.725Z,7528.00
2018-08-09T05:37:03.745Z,7744.00
2018-08-09T05:38:03.761Z,7760.00
2018-08-09T05:39:03.717Z,7716.00
2018-08-09T05:40:03.671Z,7136.00
2018-08-09T05:41:03.668Z,6480.00
2018-08-09T05:42:03.653Z,6148.00
2018-08-09T05:43:03.639Z,5976.00
2018-08-09T05:44:03.624Z,6280.00
2018-08-09T05:45:03.648Z,6420.00
2018-08-09T05:46:03.658Z,5956.00
2018-08-09T05:47:03.652Z,5564.00
2018-08-09T05:48:03.588Z,5748.00
2018-08-09T05:49:03.565Z,6268.00
2018-08-09T05:50:03.570Z,6968.00
2018-08-09T05:51:03.725Z,7304.00
2018-08-09T05:52:03.531Z,7196.00
2018-08-09T05:53:03.549Z,6676.00
2018-08-09T05:54:03.556Z,6372.00
2018-08-09T05:55:03.563Z,6668.00
2018-08-09T05:56:03.493Z,6880.00
2018-08-09T05:57:03.503Z,6676.00
2018-08-09T05:58:03.540Z,6424.00
2018-08-09T05:59:03.508Z,6708.00
2018-08-09T06:00:03.440Z,7324.00
2018-08-09T06:01:03.426Z,7972.00
2018-08-09T06:02:03.414Z,8496.00
2018-08-09T06:03:03.427Z,9092.00
2018-08-09T06:04:03.396Z,9436.00
2018-08-09T06:05:03.380Z,9288.00
2018-08-09T06:06:03.374Z,9380.00
2018-08-09T06:07:03.356Z,9604.00
2018-08-09T06:08:03.377Z,9372.00
2018-08-09T06:09:03.341Z,8552.00
2018-08-09T06:10:03.325Z,8056.00
2018-08-09T06:11:03.313Z,7952.00
2018-08-09T06:12:03.305Z,7832.00
2018-08-09T06:13:03.282Z,7192.00
2018-08-09T06:14:03.303Z,5888.00
2018-08-09T06:15:03.267Z,5376.00
2018-08-09T06:16:03.254Z,5300.00
2018-08-09T06:17:03.245Z,5796.00
2018-08-09T06:18:03.265Z,6564.00
2018-08-09T06:19:03.225Z,7604.00
2018-08-09T06:20:03.206Z,8948.00
2018-08-09T06:21:03.220Z,10412.00
2018-08-09T06:22:03.191Z,11724.00
2018-08-09T06:23:03.172Z,12728.00
2018-08-09T06:24:03.191Z,13100.00
2018-08-09T06:25:03.148Z,13044.00
2018-08-09T06:26:03.135Z,12788.00
2018-08-09T06:27:03.134Z,12748.00
2018-08-09T06:28:03.146Z,13604.00
2018-08-09T06:29:03.111Z,13648.00
2018-08-09T06:30:03.099Z,11908.00
2018-08-09T06:31:03.083Z,10136.00
2018-08-09T06:32:03.068Z,8828.00
2018-08-09T06:33:03.069Z,8336.00
2018-08-09T06:34:03.084Z,8956.00
2018-08-09T06:35:03.034Z,9972.00
2018-08-09T06:36:03.024Z,11068.00
2018-08-09T06:37:03.011Z,11284.00
2018-08-09T06:38:02.999Z,11292.00
2018-08-09T06:39:02.998Z,11492.00
2018-08-09T06:40:03.008Z,12668.00
2018-08-09T06:41:02.973Z,13392.00
2018-08-09T06:42:02.962Z,13088.00
2018-08-09T06:43:02.942Z,12696.00
2018-08-09T06:44:02.938Z,12048.00
2018-08-09T06:45:02.919Z,10932.00
2018-08-09T06:46:02.946Z,10724.00
2018-08-09T06:47:02.896Z,11064.00
2018-08-09T06:48:02.893Z,11732.00
2018-08-09T06:49:02.873Z,11820.00
2018-08-09T06:50:02.861Z,11464.00
2018-08-09T06:51:02.857Z,10480.00
2018-08-09T06:52:02.866Z,10408.00
2018-08-09T06:53:02.835Z,10272.00
2018-08-09T06:54:02.817Z,10752.00
2018-08-09T06:55:02.809Z,12228.00
2018-08-09T06:56:02.798Z,12896.00
2018-08-09T06:57:02.785Z,11960.00
2018-08-09T06:58:02.806Z,11000.00
2018-08-09T06:59:02.760Z,9844.00
2018-08-09T07:00:02.750Z,8740.00
2018-08-09T07:01:02.736Z,8456.00
2018-08-09T07:02:02.727Z,9488.00
2018-08-09T07:03:02.712Z,10220.00
2018-08-09T07:04:02.723Z,10720.00
2018-08-09T07:05:02.695Z,10724.00
2018-08-09T07:06:02.679Z,10168.00
2018-08-09T07:07:02.684Z,9968.00
2018-08-09T07:08:02.660Z,10288.00
2018-08-09T07:09:02.685Z,11052.00
2018-08-09T07:10:02.635Z,12352.00
2018-08-09T07:11:02.623Z,14204.00
2018-08-09T07:12:02.608Z,24800.00
2018-08-09T07:13:02.605Z,31616.00
2018-08-09T07:14:02.592Z,36352.00
2018-08-09T07:15:02.595Z,17216.00
2018-08-09T07:16:02.568Z,39040.00
2018-08-09T07:17:02.549Z,27104.00
2018-08-09T07:18:02.545Z,14168.00
2018-08-09T07:19:02.531Z,11788.00
2018-08-09T07:20:02.556Z,11352.00
2018-08-09T07:21:02.504Z,11752.00
2018-08-09T07:22:02.866Z,12704.00
2018-08-09T07:23:02.483Z,13168.00
2018-08-09T07:24:02.474Z,12684.00
2018-08-09T07:25:02.500Z,10996.00
2018-08-09T07:26:02.457Z,9196.00
2018-08-09T07:27:02.435Z,8136.00
2018-08-09T07:28:02.431Z,7168.00
2018-08-09T07:29:02.413Z,5932.00
2018-08-09T07:30:02.405Z,4956.00
2018-08-09T07:31:02.420Z,4884.00
2018-08-09T07:32:02.379Z,5612.00
2018-08-09T07:33:02.377Z,6524.00
2018-08-09T07:34:02.359Z,7180.00
2018-08-09T07:35:02.350Z,7192.00
2018-08-09T07:36:02.339Z,7008.00
2018-08-09T07:37:02.362Z,6716.00
2018-08-09T07:38:02.321Z,7248.00
2018-08-09T07:39:02.296Z,9184.00
2018-08-09T07:40:02.287Z,12320.00
2018-08-09T07:41:02.273Z,15196.00
2018-08-09T07:42:02.262Z,17632.00
2018-08-09T07:43:02.292Z,18208.00
2018-08-09T07:44:02.246Z,19296.00
2018-08-09T07:45:02.232Z,20544.00
2018-08-09T07:46:02.221Z,16292.00
2018-08-09T07:47:02.211Z,13260.00
2018-08-09T07:48:02.203Z,12532.00
2018-08-09T07:49:02.214Z,14188.00
2018-08-09T07:50:02.174Z,14800.00
2018-08-09T07:51:02.164Z,14764.00
2018-08-09T07:52:02.151Z,15552.00
2018-08-09T07:53:02.143Z,20192.00
2018-08-09T07:54:02.133Z,29632.00
2018-08-09T07:55:02.149Z,44736.00
2018-08-09T07:56:02.111Z,47328.00
2018-08-09T07:57:02.115Z,44096.00
2018-08-09T07:58:02.085Z,30592.00
2018-08-09T07:59:02.074Z,47616.00
2018-08-09T08:00:02.070Z,51456.00
2018-08-09T08:01:02.131Z,47936.00
2018-08-09T08:02:02.036Z,46560.00
2018-08-09T08:03:02.033Z,22592.00
2018-08-09T08:04:02.020Z,23680.00
2018-08-09T08:05:02.006Z,26272.00
2018-08-09T08:06:02.051Z,28608.00
2018-08-09T08:07:01.988Z,27232.00
2018-08-09T08:08:01.968Z,38624.00
2018-08-09T08:09:01.966Z,28032.00
2018-08-09T08:10:01.955Z,32896.00
2018-08-09T08:11:01.934Z,29376.00
2018-08-09T08:12:01.964Z,35424.00
2018-08-09T08:13:01.913Z,29792.00
2018-08-09T08:14:01.901Z,27872.00
2018-08-09T08:15:01.923Z,27200.00
2018-08-09T08:16:01.886Z,27168.00
2018-08-09T08:17:01.870Z,27232.00
2018-08-09T08:18:01.895Z,25600.00
2018-08-09T08:19:01.846Z,22944.00
2018-08-09T08:20:01.841Z,25728.00
2018-08-09T08:21:01.828Z,33888.00
2018-08-09T08:22:01.820Z,43136.00
2018-08-09T08:23:01.800Z,36288.00
2018-08-09T08:24:01.822Z,27680.00
2018-08-09T08:25:01.782Z,33888.00
2018-08-09T08:26:01.767Z,30240.00
2018-08-09T08:27:01.759Z,28992.00
2018-08-09T08:28:01.749Z,27456.00
2018-08-09T08:29:01.775Z,25216.00
2018-08-09T08:30:01.724Z,27104.00
2018-08-09T08:31:01.716Z,27200.00
2018-08-09T08:32:01.701Z,27584.00
2018-08-09T08:33:01.692Z,37312.00
2018-08-09T08:34:01.687Z,28736.00
2018-08-09T08:35:01.701Z,26176.00
2018-08-09T08:36:01.660Z,21088.00
2018-08-09T08:37:01.647Z,16120.00
2018-08-09T08:38:01.637Z,13716.00
2018-08-09T08:39:01.623Z,13508.00
2018-08-09T08:40:01.609Z,15136.00
2018-08-09T08:41:01.630Z,17920.00
2018-08-09T08:42:01.594Z,18016.00
2018-08-09T08:43:01.578Z,18496.00
2018-08-09T08:44:01.572Z,20928.00
2018-08-09T08:45:01.553Z,25920.00
2018-08-09T08:46:01.543Z,35328.00
2018-08-09T08:47:01.575Z,25760.00
2018-08-09T08:48:01.519Z,23328.00
2018-08-09T08:49:01.520Z,41376.00
2018-08-09T08:50:01.505Z,45280.00
2018-08-09T08:51:01.486Z,46080.00
2018-08-09T08:52:01.484Z,46304.00
2018-08-09T08:53:01.603Z,46464.00
2018-08-09T08:54:01.463Z,46944.00
2018-08-09T08:55:01.448Z,32992.00
2018-08-09T08:56:01.440Z,46272.00
2018-08-09T08:57:01.427Z,48640.00
2018-08-09T08:58:01.410Z,44288.00
2018-08-09T08:59:01.428Z,46496.00
2018-08-09T09:00:01.387Z,47936.00
2018-08-09T09:01:01.487Z,49024.00
2018-08-09T09:02:01.370Z,43360.00
2018-08-09T09:03:01.362Z,43968.00
2018-08-09T09:04:01.386Z,42400.00
2018-08-09T09:05:01.384Z,49568.00
2018-08-09T09:06:01.330Z,45408.00
2018-08-09T09:07:01.363Z,52256.00
2018-08-09T09:08:01.304Z,57952.00
2018-08-09T09:09:01.303Z,64032.00
2018-08-09T09:10:01.314Z,68448.00
2018-08-09T09:11:01.281Z,25920.00
2018-08-09T09:12:01.280Z,17568.00
2018-08-09T09:13:01.261Z,18656.00
2018-08-09T09:14:01.250Z,21696.00
2018-08-09T09:15:01.236Z,24544.00
2018-08-09T09:16:01.253Z,34688.00
2018-08-09T09:17:01.213Z,29216.00
2018-08-09T09:18:01.198Z,23904.00
2018-08-09T09:19:01.196Z,22368.00
2018-08-09T09:20:01.182Z,24768.00
2018-08-09T09:21:01.170Z,25632.00
2018-08-09T09:22:01.189Z,24864.00
2018-08-09T09:23:01.149Z,29088.00
2018-08-09T09:24:01.140Z,30816.00
2018-08-09T09:25:01.127Z,29088.00
2018-08-09T09:26:01.115Z,27136.00
2018-08-09T09:27:01.205Z,28640.00
2018-08-09T09:28:01.115Z,29856.00
2018-08-09T09:29:01.085Z,29856.00
2018-08-09T09:30:01.069Z,30784.00
2018-08-09T09:31:01.065Z,39456.00
2018-08-09T09:32:01.047Z,44896.00
2018-08-09T09:33:01.070Z,33728.00
2018-08-09T09:34:01.028Z,43552.00
2018-08-09T09:35:01.072Z,45536.00
2018-08-09T09:36:01.007Z,72928.00
2018-08-09T09:37:00.998Z,59968.00
2018-08-09T09:38:00.982Z,80640.00
2018-08-09T09:39:01.013Z,81696.00
2018-08-09T09:40:00.964Z,56608.00
2018-08-09T09:41:00.952Z,60640.00
2018-08-09T09:42:00.938Z,48864.00
2018-08-09T09:43:00.931Z,77248.00
2018-08-09T09:44:00.927Z,28864.00
2018-08-09T09:45:00.941Z,58432.00
2018-08-09T09:46:00.900Z,58528.00
2018-08-09T09:47:00.891Z,87616.00
2018-08-09T09:48:00.883Z,83424.00
2018-08-09T09:49:00.872Z,82368.00
2018-08-09T09:50:00.855Z,81408.00
2018-08-09T09:51:00.874Z,82336.00
2018-08-09T09:52:00.840Z,85376.00
2018-08-09T09:53:00.827Z,84256.00
2018-08-09T09:54:00.818Z,82272.00
2018-08-09T09:55:00.830Z,81280.00
2018-08-09T09:56:00.861Z,78656.00
2018-08-09T09:57:00.784Z,39744.00
2018-08-09T09:58:00.776Z,37184.00
2018-08-09T09:59:00.771Z,48416.00
2018-08-09T10:00:00.755Z,45376.00
2018-08-09T10:01:00.775Z,81888.00
2018-08-09T10:02:00.751Z,85728.00
2018-08-09T10:03:00.734Z,89984.00
2018-08-09T10:04:00.721Z,87776.00
2018-08-09T10:05:00.704Z,83232.00
2018-08-09T10:06:00.699Z,87584.00
2018-08-09T10:07:00.724Z,92320.00
2018-08-09T10:08:00.676Z,81664.00
2018-08-09T10:09:00.673Z,92096.00
2018-08-09T10:10:00.652Z,89536.00
2018-08-09T10:11:00.650Z,90272.00
2018-08-09T10:12:00.634Z,94592.00
2018-08-09T10:13:00.665Z,93312.00
2018-08-09T10:14:00.614Z,92224.00
2018-08-09T10:15:00.618Z,94176.00
2018-08-09T10:16:00.599Z,96640.00
2018-08-09T10:17:00.622Z,97344.00
2018-08-09T10:18:00.588Z,63744.00
2018-08-09T10:19:00.601Z,46368.00
2018-08-09T10:20:00.558Z,42912.00
2018-08-09T10:21:00.555Z,42144.00
2018-08-09T10:22:00.538Z,54400.00
2018-08-09T10:23:00.528Z,54048.00
2018-08-09T10:24:00.523Z,92768.00
2018-08-09T10:25:00.540Z,68832.00
2018-08-09T10:26:00.506Z,47680.00
2018-08-09T10:27:00.486Z,99616.00
2018-08-09T10:28:00.481Z,96480.00
2018-08-09T10:29:00.469Z,64992.00
2018-08-09T10:30:00.465Z,52320.00
2018-08-09T10:31:00.481Z,60832.00
2018-08-09T10:32:00.448Z,96896.00
2018-08-09T10:33:00.431Z,94304.00
2018-08-09T10:34:00.426Z,95072.00
2018-08-09T10:35:00.438Z,64416.00
2018-08-09T10:36:00.403Z,54464.00
2018-08-09T10:37:00.400Z,65792.00
2018-08-09T10:38:00.387Z,38496.00
2018-08-09T10:39:00.378Z,74848.00
2018-08-09T10:40:00.388Z,100160.00
2018-08-09T10:41:00.361Z,31392.00
2018-08-09T10:42:00.344Z,92672.00
2018-08-09T10:43:00.342Z,90784.00
2018-08-09T10:44:00.327Z,29120.00
2018-08-09T10:45:00.344Z,42496.00
2018-08-09T10:46:00.309Z,34496.00
2018-08-09T10:47:00.295Z,33728.00
2018-08-09T10:48:00.284Z,60224.00
2018-08-09T10:49:00.321Z,100064.00
2018-08-09T10:50:00.299Z,83264.00
2018-08-09T10:51:00.259Z,82400.00
2018-08-09T10:52:00.256Z,81312.00
2018-08-09T10:53:00.233Z,87968.00
2018-08-09T10:54:00.229Z,88672.00
2018-08-09T10:55:00.222Z,89984.00
2018-08-09T10:56:00.233Z,91488.00
2018-08-09T10:57:00.198Z,90912.00
2018-08-09T10:58:00.187Z,89376.00
2018-08-09T10:59:00.182Z,86112.00
2018-08-09T11:00:00.201Z,87968.00
2018-08-09T11:01:00.155Z,87648.00
2018-08-09T11:02:00.154Z,85536.00
2018-08-09T11:03:00.139Z,85440.00
2018-08-09T11:04:00.135Z,88480.00
2018-08-09T11:05:00.117Z,90592.00
2018-08-09T11:06:00.139Z,92288.00
2018-08-09T11:07:00.108Z,90112.00
2018-08-09T11:08:00.088Z,91200.00
2018-08-09T11:09:00.089Z,92128.00
2018-08-09T11:10:00.084Z,89824.00
2018-08-09T11:11:00.069Z,82048.00
2018-08-09T11:12:00.100Z,81504.00
2018-08-09T11:13:00.043Z,90560.00
2018-08-09T11:14:00.034Z,94592.00
2018-08-09T11:15:00.056Z,88928.00
2018-08-09T11:16:00.016Z,86912.00
2018-08-09T11:17:00.048Z,41536.00
2018-08-09T11:18:00.032Z,37664.00
2018-08-09T11:18:59.992Z,47040.00
2018-08-09T11:19:59.983Z,90528.00
2018-08-09T11:20:59.971Z,94720.00
2018-08-09T11:21:59.963Z,98848.00
2018-08-09T11:22:59.958Z,98496.00
2018-08-09T11:23:59.974Z,97632.00
2018-08-09T11:24:59.937Z,96448.00
2018-08-09T11:25:59.928Z,87872.00
2018-08-09T11:26:59.949Z,100000.00
2018-08-09T11:27:59.908Z,101568.00
2018-08-09T11:28:59.897Z,99040.00
2018-08-09T11:29:59.927Z,100096.00
2018-08-09T11:30:59.876Z,100096.00
2018-08-09T11:31:59.877Z,98848.00
2018-08-09T11:32:59.873Z,101376.00
2018-08-09T11:33:59.869Z,98912.00
2018-08-09T11:34:59.846Z,93792.00
2018-08-09T11:35:59.873Z,90208.00
2018-08-09T11:36:59.823Z,39488.00
2018-08-09T11:37:59.819Z,97792.00
2018-08-09T11:38:59.808Z,93600.00
2018-08-09T11:39:59.796Z,89856.00
2018-08-09T11:40:59.796Z,90528.00
2018-08-09T11:41:59.819Z,94976.00
2018-08-09T11:42:59.823Z,92480.00
2018-08-09T11:43:59.769Z,92000.00
2018-08-09T11:44:59.751Z,25408.00
2018-08-09T11:45:59.748Z,31520.00
2018-08-09T11:46:59.735Z,91648.00
2018-08-09T11:47:59.763Z,89088.00
2018-08-09T11:48:59.725Z,27392.00
2018-08-09T11:49:59.712Z,27104.00
2018-08-09T11:50:59.699Z,54080.00
2018-08-09T11:51:59.687Z,61600.00
2018-08-09T11:52:59.694Z,36224.00
2018-08-09T11:53:59.701Z,35360.00
2018-08-09T11:54:59.665Z,66624.00
2018-08-09T11:55:59.661Z,68512.00
2018-08-09T11:56:59.680Z,73568.00
2018-08-09T11:57:59.629Z,72576.00
2018-08-09T11:58:59.623Z,67744.00
2018-08-09T11:59:59.642Z,32960.00
2018-08-09T12:00:59.603Z,45024.00
2018-08-09T12:01:59.595Z,75200.00
2018-08-09T12:02:59.588Z,69984.00
2018-08-09T12:03:59.585Z,67840.00
2018-08-09T12:04:59.562Z,70080.00
2018-08-09T12:05:59.585Z,68064.00
2018-08-09T12:06:59.545Z,61344.00
2018-08-09T12:07:59.543Z,70784.00
2018-08-09T12:08:59.524Z,60192.00
2018-08-09T12:09:59.515Z,36032.00
2018-08-09T12:10:59.539Z,53824.00
2018-08-09T12:11:59.496Z,30336.00
2018-08-09T12:12:59.507Z,25632.00
2018-08-09T12:13:59.485Z,21600.00
2018-08-09T12:14:59.477Z,19360.00
2018-08-09T12:15:59.489Z,17184.00
2018-08-09T12:16:59.446Z,23040.00